Time;durP1;ratioP1;P1;durP2;ratioP2;P2;SDS_P1;SDS_P2;PMS_P1;PMS_P2;Temp;Humidity;BMP_temperature;BMP_pressure;BME280_temperature;BME280_humidity;BME280_pressure;Samples;Min_cycle;Max_cycle;Signal;HPM_P1;HPM_P2
2022/03/08 00:00:44;;;;;;;6.43;4.77;;;;;;;;;;5014914;28;20782;-81
2022/03/08 00:03:10;;;;;;;9.67;6.50;;;;;;;;;;5014546;28;20539;-81
2022/03/08 00:05:36;;;;;;;11.60;6.30;;;;;;;;;;4997053;28;20426;-80
2022/03/08 00:08:02;;;;;;;6.83;5.17;;;;;;;;;;5014777;28;20431;-80
2022/03/08 00:10:28;;;;;;;7.83;5.30;;;;;;;;;;5014704;28;20423;-80
2022/03/08 00:12:54;;;;;;;7.83;5.80;;;;;;;;;;5015001;28;20419;-80
2022/03/08 00:15:23;;;;;;;5.53;4.13;;;;;;;;;;5014738;28;20400;-80
2022/03/08 00:17:49;;;;;;;7.00;4.20;;;;;;;;;;5014345;28;20424;-81
2022/03/08 00:20:16;;;;;;;6.50;4.83;;;;;;;;;;5014687;28;20432;-81
2022/03/08 00:22:42;;;;;;;7.23;5.67;;;;;;;;;;5014589;28;20483;-81
2022/03/08 00:25:09;;;;;;;8.97;6.27;;;;;;;;;;5014626;28;20488;-80
2022/03/08 00:27:35;;;;;;;6.53;5.90;;;;;;;;;;5014213;28;20496;-81
2022/03/08 00:30:01;;;;;;;9.20;4.80;;;;;;;;;;5014672;28;20924;-80
2022/03/08 00:32:27;;;;;;;6.03;4.77;;;;;;;;;;5014125;28;20918;-80
2022/03/08 00:34:53;;;;;;;8.67;5.57;;;;;;;;;;5014513;28;20503;-81
2022/03/08 00:37:20;;;;;;;10.50;6.60;;;;;;;;;;4996779;28;20428;-80
2022/03/08 00:39:46;;;;;;;8.37;5.10;;;;;;;;;;5014392;28;20424;-81
2022/03/08 00:42:12;;;;;;;5.63;4.80;;;;;;;;;;5046746;23;20585;-80
2022/03/08 00:44:41;;;;;;;6.27;5.10;;;;;;;;;;5014218;28;20500;-80
2022/03/08 00:47:08;;;;;;;6.93;5.27;;;;;;;;;;5013778;28;20847;-81
2022/03/08 00:49:34;;;;;;;9.80;5.10;;;;;;;;;;5014116;28;20406;-81
2022/03/08 00:52:00;;;;;;;7.30;5.60;;;;;;;;;;5014092;28;20412;-80
2022/03/08 00:54:26;;;;;;;6.30;4.57;;;;;;;;;;5014075;28;20431;-80
2022/03/08 00:56:52;;;;;;;7.33;4.50;;;;;;;;;;5014182;28;20505;-80
2022/03/08 00:59:21;;;;;;;9.80;5.70;;;;;;;;;;5013907;28;20436;-80
2022/03/08 01:01:46;;;;;;;9.70;5.33;;;;;;;;;;5013850;28;20452;-80
2022/03/08 01:04:12;;;;;;;6.80;5.23;;;;;;;;;;5013435;28;20917;-80
2022/03/08 01:06:40;;;;;;;6.50;5.40;;;;;;;;;;5013370;28;20504;-81
2022/03/08 01:09:06;;;;;;;6.73;4.20;;;;;;;;;;5013683;28;20423;-80
2022/03/08 01:11:32;;;;;;;4.53;3.77;;;;;;;;;;5013579;28;20408;-80
2022/03/08 01:13:58;;;;;;;5.37;4.50;;;;;;;;;;5013764;28;20419;-81
2022/03/08 01:16:24;;;;;;;8.43;4.90;;;;;;;;;;5013729;28;20415;-82
2022/03/08 01:18:50;;;;;;;7.20;4.80;;;;;;;;;;5013344;28;20774;-81
2022/03/08 01:21:17;;;;;;;6.00;4.90;;;;;;;;;;5013610;28;20417;-82
2022/03/08 01:23:43;;;;;;;7.63;5.17;;;;;;;;;;4995810;28;20501;-82
2022/03/08 01:26:09;;;;;;;11.73;5.90;;;;;;;;;;4995848;28;20782;-81
2022/03/08 01:28:35;;;;;;;5.70;5.13;;;;;;;;;;5013439;28;20430;-81
2022/03/08 01:31:01;;;;;;;8.83;5.03;;;;;;;;;;4995939;28;20423;-81
2022/03/08 01:33:30;;;;;;;5.63;4.90;;;;;;;;;;4995416;28;20438;-82
2022/03/08 01:35:56;;;;;;;9.60;6.07;;;;;;;;;;4995832;28;20426;-81
2022/03/08 01:38:22;;;;;;;6.43;4.83;;;;;;;;;;5013547;28;20511;-81
2022/03/08 01:40:48;;;;;;;6.67;5.63;;;;;;;;;;4995850;28;20451;-82
2022/03/08 01:43:14;;;;;;;7.20;5.30;;;;;;;;;;5013163;28;20493;-81
2022/03/08 01:45:40;;;;;;;11.23;7.00;;;;;;;;;;4995663;28;20507;-82
2022/03/08 01:48:06;;;;;;;5.20;4.73;;;;;;;;;;5012902;28;20917;-81
2022/03/08 01:50:32;;;;;;;10.60;5.87;;;;;;;;;;5013254;28;20419;-82
2022/03/08 01:52:58;;;;;;;10.07;6.67;;;;;;;;;;5013263;28;20900;-81
2022/03/08 01:55:25;;;;;;;9.23;5.03;;;;;;;;;;5013066;28;20454;-80
2022/03/08 01:57:51;;;;;;;10.80;6.07;;;;;;;;;;5013199;28;20811;-82
2022/03/08 02:00:19;;;;;;;6.47;4.70;;;;;;;;;;5013317;28;20407;-82
2022/03/08 02:02:45;;;;;;;6.63;5.87;;;;;;;;;;4995131;28;20907;-81
2022/03/08 02:05:11;;;;;;;8.10;6.23;;;;;;;;;;5013105;28;20490;-82
2022/03/08 02:07:38;;;;;;;7.60;5.70;;;;;;;;;;5013025;28;20963;-81
2022/03/08 02:10:05;;;;;;;11.03;6.90;;;;;;;;;;5013048;28;20501;-81
2022/03/08 02:12:31;;;;;;;6.17;5.43;;;;;;;;;;5013188;28;20410;-81
2022/03/08 02:14:57;;;;;;;8.77;6.43;;;;;;;;;;5013058;28;20453;-81
2022/03/08 02:17:26;;;;;;;8.80;7.20;;;;;;;;;;5012614;28;20444;-81
2022/03/08 02:19:56;;;;;;;8.50;5.70;;;;;;;;;;5016358;28;20420;-81
2022/03/08 02:22:22;;;;;;;10.03;7.10;;;;;;;;;;5016838;28;20470;-81
2022/03/08 02:24:48;;;;;;;6.97;6.07;;;;;;;;;;5016837;28;20427;-81
2022/03/08 02:27:14;;;;;;;8.83;6.30;;;;;;;;;;5016797;28;20951;-81
2022/03/08 02:29:40;;;;;;;8.07;6.27;;;;;;;;;;4999141;28;20470;-81
2022/03/08 02:32:06;;;;;;;10.30;6.23;;;;;;;;;;4998727;28;20914;-81
2022/03/08 02:34:32;;;;;;;8.27;6.60;;;;;;;;;;5016419;28;20428;-81
2022/03/08 02:37:11;;;;;;;12.40;6.93;;;;;;;;;;5016561;28;20417;-81
2022/03/08 02:39:37;;;;;;;8.87;5.40;;;;;;;;;;5016559;28;20477;-81
2022/03/08 02:42:04;;;;;;;8.10;5.87;;;;;;;;;;4998641;28;20483;-82
2022/03/08 02:44:30;;;;;;;11.27;7.33;;;;;;;;;;5016445;28;20867;-82
2022/03/08 02:46:56;;;;;;;8.50;6.70;;;;;;;;;;5015995;28;20983;-82
2022/03/08 02:49:22;;;;;;;7.77;6.30;;;;;;;;;;5016297;28;20565;-82
2022/03/08 02:51:48;;;;;;;11.80;6.60;;;;;;;;;;5016374;28;20413;-82
2022/03/08 02:54:14;;;;;;;8.43;6.10;;;;;;;;;;5016161;28;20420;-82
2022/03/08 02:56:40;;;;;;;6.70;5.97;;;;;;;;;;5016314;28;20411;-82
2022/03/08 02:59:06;;;;;;;10.30;5.73;;;;;;;;;;5016165;28;20419;-82
2022/03/08 03:01:32;;;;;;;15.83;6.50;;;;;;;;;;5016008;28;20840;-82
2022/03/08 03:03:58;;;;;;;9.50;5.13;;;;;;;;;;4998121;28;20511;-82
2022/03/08 03:06:24;;;;;;;6.83;5.57;;;;;;;;;;5015827;28;20451;-82
2022/03/08 03:08:50;;;;;;;8.97;6.37;;;;;;;;;;5015951;28;20433;-82
2022/03/08 03:11:16;;;;;;;12.40;6.07;;;;;;;;;;4998253;28;20930;-82
2022/03/08 03:13:42;;;;;;;9.00;5.20;;;;;;;;;;5015643;28;20478;-82
2022/03/08 03:16:07;;;;;;;8.83;6.10;;;;;;;;;;4998248;28;20423;-81
2022/03/08 03:18:33;;;;;;;9.20;5.87;;;;;;;;;;5015333;28;20478;-82
2022/03/08 03:20:59;;;;;;;9.67;6.23;;;;;;;;;;5015763;28;20412;-82
2022/03/08 03:23:25;;;;;;;7.53;6.10;;;;;;;;;;4997959;28;20881;-82
2022/03/08 03:25:51;;;;;;;9.73;6.50;;;;;;;;;;5015536;28;20761;-82
2022/03/08 03:28:17;;;;;;;8.03;5.10;;;;;;;;;;5015372;28;20416;-82
2022/03/08 03:30:46;;;;;;;5.30;4.80;;;;;;;;;;5014808;28;20901;-83
2022/03/08 03:33:12;;;;;;;7.53;6.47;;;;;;;;;;4997500;28;20924;-82
2022/03/08 03:35:50;;;;;;;7.80;6.10;;;;;;;;;;5014556;28;20503;-82
2022/03/08 03:38:16;;;;;;;5.97;5.13;;;;;;;;;;5013534;28;20500;-83
2022/03/08 03:40:42;;;;;;;8.53;5.37;;;;;;;;;;5013938;28;20441;-82
2022/03/08 03:43:11;;;;;;;9.87;7.00;;;;;;;;;;4996440;28;21066;-83
2022/03/08 03:45:37;;;;;;;7.27;5.80;;;;;;;;;;5015363;28;20404;-82
2022/03/08 03:48:03;;;;;;;10.90;6.70;;;;;;;;;;5015012;28;20444;-83
2022/03/08 03:50:29;;;;;;;8.30;4.77;;;;;;;;;;5015250;28;20410;-83
2022/03/08 03:52:55;;;;;;;7.83;5.53;;;;;;;;;;5015288;28;20433;-83
2022/03/08 03:55:21;;;;;;;7.73;5.40;;;;;;;;;;5015074;28;20493;-82
2022/03/08 03:57:47;;;;;;;11.93;5.73;;;;;;;;;;4997616;28;20428;-82
2022/03/08 04:00:14;;;;;;;13.50;6.13;;;;;;;;;;4997635;28;20429;-82
2022/03/08 04:02:40;;;;;;;11.43;6.10;;;;;;;;;;5014595;28;20458;-82
2022/03/08 04:05:07;;;;;;;6.57;5.20;;;;;;;;;;5015044;28;20417;-82
2022/03/08 04:07:32;;;;;;;11.27;6.57;;;;;;;;;;5015021;28;20404;-82
2022/03/08 04:09:58;;;;;;;5.70;4.73;;;;;;;;;;4997276;28;20419;-82
2022/03/08 04:12:24;;;;;;;7.47;5.23;;;;;;;;;;5014980;28;20406;-81
2022/03/08 04:14:50;;;;;;;8.43;5.13;;;;;;;;;;5014723;28;20430;-81
2022/03/08 04:17:16;;;;;;;6.37;5.43;;;;;;;;;;4996801;28;20418;-81
2022/03/08 04:19:42;;;;;;;11.07;8.30;;;;;;;;;;5014751;28;20416;-82
2022/03/08 04:22:09;;;;;;;8.70;5.80;;;;;;;;;;5014610;28;20783;-82
2022/03/08 04:24:35;;;;;;;7.17;5.00;;;;;;;;;;5014646;28;20423;-83
2022/03/08 04:27:01;;;;;;;9.50;6.47;;;;;;;;;;5014637;28;20473;-82
2022/03/08 04:29:27;;;;;;;8.23;6.37;;;;;;;;;;5014595;28;20974;-82
2022/03/08 04:31:53;;;;;;;8.30;5.43;;;;;;;;;;5014212;28;20412;-82
2022/03/08 04:34:19;;;;;;;6.37;5.90;;;;;;;;;;5014305;28;20418;-82
2022/03/08 04:36:45;;;;;;;7.70;6.13;;;;;;;;;;5014443;28;20834;-82
2022/03/08 04:39:11;;;;;;;10.40;6.13;;;;;;;;;;5014267;28;20896;-82
2022/03/08 04:41:37;;;;;;;7.50;5.70;;;;;;;;;;4995514;28;20454;-82
2022/03/08 04:44:06;;;;;;;7.70;6.30;;;;;;;;;;5014004;28;20475;-83
2022/03/08 04:46:35;;;;;;;7.10;5.63;;;;;;;;;;5013738;28;20469;-82
2022/03/08 04:49:01;;;;;;;10.27;6.60;;;;;;;;;;4996585;28;20415;-82
2022/03/08 04:51:27;;;;;;;7.43;6.37;;;;;;;;;;5014076;28;20748;-82
2022/03/08 04:53:53;;;;;;;11.23;5.70;;;;;;;;;;5013927;28;20914;-82
2022/03/08 04:56:19;;;;;;;9.53;4.70;;;;;;;;;;5014179;28;20421;-83
2022/03/08 04:58:45;;;;;;;7.20;5.83;;;;;;;;;;5014165;28;20411;-83
2022/03/08 05:01:15;;;;;;;8.33;5.93;;;;;;;;;;5013874;28;20450;-82
2022/03/08 05:03:41;;;;;;;4.80;4.40;;;;;;;;;;4996028;28;20513;-82
2022/03/08 05:06:07;;;;;;;6.17;5.57;;;;;;;;;;5013941;28;20448;-82
2022/03/08 05:08:36;;;;;;;4.57;3.90;;;;;;;;;;5013912;28;20505;-82
2022/03/08 05:11:02;;;;;;;9.10;5.30;;;;;;;;;;5013934;28;20434;-82
2022/03/08 05:13:31;;;;;;;6.77;4.33;;;;;;;;;;5013651;28;20828;-83
2022/03/08 05:15:57;;;;;;;7.20;5.20;;;;;;;;;;5013733;28;20402;-83
2022/03/08 05:18:23;;;;;;;9.60;5.77;;;;;;;;;;5013235;28;20874;-82
2022/03/08 05:20:49;;;;;;;7.47;5.10;;;;;;;;;;4996123;28;20768;-83
2022/03/08 05:23:18;;;;;;;5.90;5.13;;;;;;;;;;5013610;28;20473;-83
2022/03/08 05:25:45;;;;;;;7.07;5.53;;;;;;;;;;4995754;28;20953;-83
2022/03/08 05:28:11;;;;;;;9.77;5.80;;;;;;;;;;5013653;28;20453;-83
2022/03/08 05:30:37;;;;;;;5.47;4.93;;;;;;;;;;5013613;28;20798;-83
2022/03/08 05:33:03;;;;;;;7.07;5.07;;;;;;;;;;4995627;28;20446;-83
2022/03/08 05:35:29;;;;;;;8.03;4.80;;;;;;;;;;5013308;28;20911;-83
2022/03/08 05:37:55;;;;;;;6.10;4.40;;;;;;;;;;5013332;28;20997;-83
2022/03/08 05:40:21;;;;;;;6.80;5.17;;;;;;;;;;5013382;28;20434;-82
2022/03/08 05:42:47;;;;;;;10.30;6.67;;;;;;;;;;5013045;28;20515;-83
2022/03/08 05:45:13;;;;;;;6.90;5.47;;;;;;;;;;5013244;28;20415;-83
2022/03/08 05:47:39;;;;;;;6.60;5.50;;;;;;;;;;5012930;28;20408;-83
2022/03/08 05:50:06;;;;;;;10.27;6.87;;;;;;;;;;5013117;28;20417;-83
2022/03/08 05:52:32;;;;;;;9.67;5.40;;;;;;;;;;4995255;28;20971;-83
2022/03/08 05:54:58;;;;;;;7.20;6.50;;;;;;;;;;5013362;28;20419;-83
2022/03/08 05:57:24;;;;;;;6.30;5.30;;;;;;;;;;5013150;28;20410;-82
2022/03/08 05:59:50;;;;;;;7.20;6.10;;;;;;;;;;5013135;28;20416;-83
2022/03/08 06:02:16;;;;;;;6.60;5.57;;;;;;;;;;5012631;28;20407;-83
2022/03/08 06:04:42;;;;;;;9.00;4.50;;;;;;;;;;5013126;28;20419;-82
2022/03/08 06:07:08;;;;;;;10.23;6.13;;;;;;;;;;4995441;28;20773;-84
2022/03/08 06:09:34;;;;;;;9.07;5.77;;;;;;;;;;5013015;28;20986;-83
2022/03/08 06:12:06;;;;;;;8.53;7.03;;;;;;;;;;5013061;28;20450;-84
2022/03/08 06:14:32;;;;;;;7.37;5.60;;;;;;;;;;4995442;28;20442;-83
2022/03/08 06:16:58;;;;;;;5.77;5.23;;;;;;;;;;4995123;28;20439;-83
2022/03/08 06:19:24;;;;;;;5.47;4.30;;;;;;;;;;4995198;28;20423;-82
2022/03/08 06:21:50;;;;;;;7.57;4.77;;;;;;;;;;5012985;28;20472;-84
2022/03/08 06:24:16;;;;;;;8.83;5.30;;;;;;;;;;5012837;28;20470;-83
2022/03/08 06:26:42;;;;;;;5.60;4.97;;;;;;;;;;5012974;28;20501;-82
2022/03/08 06:29:09;;;;;;;8.53;5.57;;;;;;;;;;5012983;28;20466;-83
2022/03/08 06:31:35;;;;;;;9.37;5.10;;;;;;;;;;4994986;28;20419;-83
2022/03/08 06:34:01;;;;;;;8.07;6.73;;;;;;;;;;5012977;28;20430;-84
2022/03/08 06:36:27;;;;;;;6.80;5.73;;;;;;;;;;5013041;28;20417;-82
2022/03/08 06:38:53;;;;;;;6.90;5.33;;;;;;;;;;4995193;28;20419;-83
2022/03/08 06:41:18;;;;;;;6.00;5.00;;;;;;;;;;5012679;28;20533;-82
2022/03/08 06:43:45;;;;;;;6.33;5.07;;;;;;;;;;5013017;28;20494;-82
2022/03/08 06:46:13;;;;;;;7.10;5.00;;;;;;;;;;4995852;28;21000;-82
2022/03/08 06:48:39;;;;;;;5.17;4.67;;;;;;;;;;5014274;28;20507;-83
2022/03/08 06:51:06;;;;;;;7.33;6.67;;;;;;;;;;5013389;28;20494;-82
2022/03/08 06:53:32;;;;;;;8.53;5.07;;;;;;;;;;5014052;28;20419;-84
2022/03/08 06:55:58;;;;;;;7.87;5.47;;;;;;;;;;5017065;28;20444;-82
2022/03/08 06:58:24;;;;;;;11.63;6.73;;;;;;;;;;4996994;28;20472;-83
2022/03/08 07:00:50;;;;;;;8.00;4.90;;;;;;;;;;5014215;28;20445;-84
2022/03/08 07:03:22;;;;;;;5.53;4.70;;;;;;;;;;5013949;28;20477;-85
2022/03/08 07:05:48;;;;;;;6.50;4.70;;;;;;;;;;5016180;28;20497;-86
2022/03/08 07:08:14;;;;;;;7.03;3.53;;;;;;;;;;4983025;28;20420;-85
2022/03/08 07:10:40;;;;;;;8.60;4.40;;;;;;;;;;5016879;28;20919;-84
2022/03/08 07:13:06;;;;;;;4.70;4.00;;;;;;;;;;4999518;28;20414;-83
2022/03/08 07:15:33;;;;;;;5.90;3.67;;;;;;;;;;5016630;28;20421;-82
2022/03/08 07:17:59;;;;;;;5.77;3.67;;;;;;;;;;5016399;28;20505;-83
2022/03/08 07:20:25;;;;;;;7.20;3.33;;;;;;;;;;5016326;28;20412;-83
2022/03/08 07:22:53;;;;;;;8.53;5.20;;;;;;;;;;5016091;28;20900;-82
2022/03/08 07:25:19;;;;;;;6.93;4.10;;;;;;;;;;5016355;28;20422;-82
2022/03/08 07:27:46;;;;;;;7.00;4.33;;;;;;;;;;5016086;28;20445;-83
2022/03/08 07:30:13;;;;;;;6.50;3.80;;;;;;;;;;5014293;28;20532;-82
2022/03/08 07:32:39;;;;;;;4.77;3.87;;;;;;;;;;5015588;28;20472;-84
2022/03/08 07:35:08;;;;;;;4.97;3.50;;;;;;;;;;5016077;28;20414;-82
2022/03/08 07:37:35;;;;;;;8.40;4.90;;;;;;;;;;5016016;28;20405;-83
2022/03/08 07:40:04;;;;;;;5.93;4.20;;;;;;;;;;4998506;28;21059;-82
2022/03/08 07:42:30;;;;;;;5.70;5.10;;;;;;;;;;5015947;28;20579;-82
2022/03/08 07:44:56;;;;;;;4.67;3.90;;;;;;;;;;5015748;28;20530;-81
2022/03/08 07:47:22;;;;;;;6.20;3.57;;;;;;;;;;5015132;28;20762;-81
2022/03/08 07:49:49;;;;;;;7.37;3.47;;;;;;;;;;5014505;28;20411;-82
2022/03/08 07:52:21;;;;;;;7.40;3.80;;;;;;;;;;5015496;28;20455;-83
2022/03/08 07:54:47;;;;;;;4.77;3.67;;;;;;;;;;5015768;28;20423;-83
2022/03/08 07:57:13;;;;;;;4.53;3.20;;;;;;;;;;5015686;28;20407;-81
2022/03/08 07:59:39;;;;;;;6.77;4.73;;;;;;;;;;4998258;28;20429;-81
2022/03/08 08:02:05;;;;;;;8.10;4.60;;;;;;;;;;5015607;28;20420;-85
2022/03/08 08:04:31;;;;;;;5.47;4.13;;;;;;;;;;5015015;28;20507;-83
2022/03/08 08:06:57;;;;;;;6.10;3.50;;;;;;;;;;5014947;28;20483;-82
2022/03/08 08:09:23;;;;;;;4.47;3.23;;;;;;;;;;5014890;28;20436;-82
2022/03/08 08:11:50;;;;;;;5.03;4.10;;;;;;;;;;5014924;28;20508;-83
2022/03/08 08:14:16;;;;;;;5.40;3.90;;;;;;;;;;5014890;28;20431;-81
2022/03/08 08:16:42;;;;;;;4.90;2.67;;;;;;;;;;5014296;28;20415;-82
2022/03/08 08:19:08;;;;;;;5.97;3.87;;;;;;;;;;5014597;28;20476;-82
2022/03/08 08:21:37;;;;;;;4.60;4.20;;;;;;;;;;5014838;28;20480;-84
2022/03/08 08:24:04;;;;;;;4.43;4.03;;;;;;;;;;4981648;28;20532;-83
2022/03/08 08:26:30;;;;;;;4.13;3.67;;;;;;;;;;5014757;28;20417;-83
2022/03/08 08:28:59;;;;;;;5.67;3.57;;;;;;;;;;5014719;28;20427;-82
2022/03/08 08:31:28;;;;;;;5.47;3.73;;;;;;;;;;5014096;28;20484;-83
2022/03/08 08:33:54;;;;;;;5.23;3.87;;;;;;;;;;5014523;28;20423;-82
2022/03/08 08:36:20;;;;;;;3.57;3.27;;;;;;;;;;5014480;28;20426;-83
2022/03/08 08:38:56;;;;;;;4.77;3.50;;;;;;;;;;5014442;28;20418;-82
2022/03/08 08:41:22;;;;;;;5.50;3.37;;;;;;;;;;4996808;28;20809;-85
2022/03/08 08:43:48;;;;;;;3.57;3.27;;;;;;;;;;4993953;28;20984;-84
2022/03/08 08:46:14;;;;;;;4.67;2.73;;;;;;;;;;5000882;28;20456;-82
2022/03/08 08:48:40;;;;;;;3.87;3.50;;;;;;;;;;4995081;28;20429;-81
2022/03/08 08:51:06;;;;;;;3.83;3.00;;;;;;;;;;4994813;28;20425;-81
2022/03/08 08:53:32;;;;;;;4.90;3.63;;;;;;;;;;4994890;28;20480;-81
2022/03/08 08:55:58;;;;;;;7.00;3.30;;;;;;;;;;4994728;28;20185;-82
2022/03/08 08:58:24;;;;;;;3.37;2.83;;;;;;;;;;4994194;28;20434;-81
2022/03/08 09:00:50;;;;;;;3.87;3.43;;;;;;;;;;5004124;28;20421;-82
2022/03/08 09:03:16;;;;;;;3.50;3.20;;;;;;;;;;4995067;28;20554;-84
2022/03/08 09:05:45;;;;;;;4.93;4.20;;;;;;;;;;4996887;28;20415;-84
2022/03/08 09:08:14;;;;;;;5.07;3.73;;;;;;;;;;4995549;28;20434;-84
2022/03/08 09:10:40;;;;;;;3.47;3.17;;;;;;;;;;4993985;28;20402;-83
2022/03/08 09:13:06;;;;;;;5.60;4.70;;;;;;;;;;4994146;28;20409;-82
2022/03/08 09:15:32;;;;;;;4.37;3.47;;;;;;;;;;4994181;28;20413;-82
2022/03/08 09:17:58;;;;;;;3.50;3.20;;;;;;;;;;4993889;28;20846;-82
2022/03/08 09:20:26;;;;;;;2.93;2.63;;;;;;;;;;4993784;28;20410;-82
2022/03/08 09:22:53;;;;;;;4.40;3.07;;;;;;;;;;4976301;28;20482;-81
2022/03/08 09:25:19;;;;;;;4.70;3.23;;;;;;;;;;4993939;28;20473;-82
2022/03/08 09:27:45;;;;;;;4.83;4.10;;;;;;;;;;4993284;28;20415;-82
2022/03/08 09:30:11;;;;;;;6.13;5.53;;;;;;;;;;4993963;28;20422;-82
2022/03/08 09:32:42;;;;;;;5.90;4.90;;;;;;;;;;4993458;28;20911;-82
2022/03/08 09:35:08;;;;;;;5.70;3.90;;;;;;;;;;4994006;28;20590;-81
2022/03/08 09:37:34;;;;;;;5.13;4.10;;;;;;;;;;4976431;28;20567;-87
2022/03/08 09:40:00;;;;;;;5.00;4.50;;;;;;;;;;4993835;28;21010;-84
2022/03/08 09:42:26;;;;;;;5.97;5.03;;;;;;;;;;4993482;28;20553;-84
2022/03/08 09:44:52;;;;;;;5.20;4.07;;;;;;;;;;4976089;28;20916;-83
2022/03/08 09:47:18;;;;;;;4.67;4.10;;;;;;;;;;4992966;28;20175;-81
2022/03/08 09:49:47;;;;;;;4.70;4.30;;;;;;;;;;4993647;28;20175;-80
2022/03/08 09:52:13;;;;;;;4.70;3.20;;;;;;;;;;4976110;28;20418;-81
2022/03/08 09:54:41;;;;;;;5.20;3.80;;;;;;;;;;4993549;28;20837;-82
2022/03/08 09:57:08;;;;;;;4.20;3.10;;;;;;;;;;4993447;28;20485;-81
2022/03/08 09:59:34;;;;;;;5.50;3.63;;;;;;;;;;4993453;28;20425;-81
2022/03/08 10:02:00;;;;;;;3.87;3.47;;;;;;;;;;4993115;28;20409;-81
2022/03/08 10:04:26;;;;;;;5.20;3.13;;;;;;;;;;4975824;28;20787;-80
2022/03/08 10:06:52;;;;;;;5.00;2.87;;;;;;;;;;4993301;28;20171;-81
2022/03/08 10:09:19;;;;;;;5.23;2.90;;;;;;;;;;4993405;28;20483;-82
2022/03/08 10:11:45;;;;;;;3.70;2.70;;;;;;;;;;4993377;28;20174;-81
2022/03/08 10:14:13;;;;;;;3.40;3.10;;;;;;;;;;4993326;28;20419;-80
2022/03/08 10:16:43;;;;;;;4.30;3.10;;;;;;;;;;4992941;28;20414;-80
2022/03/08 10:19:10;;;;;;;3.30;3.00;;;;;;;;;;4993373;28;20407;-81
2022/03/08 10:21:47;;;;;;;5.17;2.23;;;;;;;;;;4993235;28;20433;-80
2022/03/08 10:24:15;;;;;;;3.37;2.40;;;;;;;;;;4979047;28;20548;-84
2022/03/08 10:26:46;;;;;;;3.23;1.90;;;;;;;;;;5011370;28;20435;-86
2022/03/08 10:29:12;;;;;;;6.40;3.40;;;;;;;;;;5011813;28;20414;-84
2022/03/08 10:31:38;;;;;;;4.73;2.70;;;;;;;;;;5011546;28;20415;-85
2022/03/08 10:34:05;;;;;;;4.03;2.20;;;;;;;;;;5010984;28;20414;-85
2022/03/08 10:36:32;;;;;;;3.97;2.70;;;;;;;;;;5009932;28;20414;-85
2022/03/08 10:39:09;;;;;;;5.10;2.60;;;;;;;;;;5011813;28;20464;-84
2022/03/08 10:41:55;;;;;;;4.53;2.73;;;;;;;;;;5015483;28;20511;-84
2022/03/08 10:44:31;;;;;;;3.67;3.37;;;;;;;;;;4997986;28;20519;-85
2022/03/08 10:47:05;;;;;;;3.43;2.93;;;;;;;;;;5015140;28;20428;-85
2022/03/08 10:49:32;;;;;;;4.50;3.40;;;;;;;;;;5015430;28;20474;-84
2022/03/08 10:52:02;;;;;;;5.30;3.80;;;;;;;;;;5015367;28;20413;-86
2022/03/08 10:54:29;;;;;;;3.90;3.00;;;;;;;;;;4996662;28;20422;-85
2022/03/08 10:56:56;;;;;;;3.97;3.20;;;;;;;;;;5015174;28;20424;-86
2022/03/08 10:59:22;;;;;;;3.10;2.80;;;;;;;;;;5015172;28;20417;-86
2022/03/08 11:01:48;;;;;;;3.73;2.90;;;;;;;;;;5014913;28;20406;-86
2022/03/08 11:04:18;;;;;;;6.17;4.17;;;;;;;;;;5014834;28;20481;-86
2022/03/08 11:06:45;;;;;;;4.07;3.67;;;;;;;;;;5014382;28;20229;-85
2022/03/08 11:09:11;;;;;;;3.40;2.90;;;;;;;;;;4997471;28;20512;-84
2022/03/08 11:11:37;;;;;;;3.37;2.30;;;;;;;;;;5014883;28;20508;-87
2022/03/08 11:14:03;;;;;;;6.10;3.10;;;;;;;;;;5015016;28;20422;-88
2022/03/08 11:16:33;;;;;;;3.63;3.27;;;;;;;;;;5014738;28;20774;-87
2022/03/08 11:18:59;;;;;;;2.83;2.00;;;;;;;;;;5014903;28;20410;-87
2022/03/08 11:21:26;;;;;;;4.40;3.07;;;;;;;;;;4997393;28;20414;-87
2022/03/08 11:23:55;;;;;;;2.87;2.23;;;;;;;;;;5014681;28;20516;-89
2022/03/08 11:26:22;;;;;;;2.57;2.37;;;;;;;;;;4996049;28;20801;-88
2022/03/08 11:28:51;;;;;;;4.43;2.73;;;;;;;;;;5014584;28;20405;-88
2022/03/08 11:31:18;;;;;;;2.60;2.40;;;;;;;;;;4996779;28;20480;-88
2022/03/08 11:34:01;;;;;;;2.63;2.00;;;;;;;;;;5014336;28;20410;-87
2022/03/08 11:36:34;;;;;;;5.43;2.53;;;;;;;;;;4996644;28;20445;-87
2022/03/08 11:39:11;;;;;;;4.00;2.40;;;;;;;;;;4996491;28;20510;-87
2022/03/08 11:41:37;;;;;;;3.13;1.83;;;;;;;;;;4996485;28;20497;-89
2022/03/08 11:44:04;;;;;;;2.17;1.80;;;;;;;;;;5014351;28;20909;-87
2022/03/08 11:46:30;;;;;;;3.10;2.20;;;;;;;;;;5013687;28;20818;-88
2022/03/08 11:48:57;;;;;;;3.67;1.90;;;;;;;;;;4996379;28;20488;-87
2022/03/08 11:51:24;;;;;;;3.07;1.63;;;;;;;;;;5013693;28;20430;-88
2022/03/08 11:54:06;;;;;;;2.70;1.90;;;;;;;;;;4996320;28;20500;-87
2022/03/08 11:56:54;;;;;;;2.53;2.10;;;;;;;;;;5013760;28;20402;-89
2022/03/08 11:59:20;;;;;;;4.83;2.80;;;;;;;;;;5014492;28;20755;-83
2022/03/08 12:01:47;;;;;;;3.13;1.90;;;;;;;;;;5012770;28;20449;-81
2022/03/08 12:04:20;;;;;;;5.80;2.37;;;;;;;;;;5014333;28;20469;-82
2022/03/08 12:06:54;;;;;;;3.60;2.20;;;;;;;;;;5014532;28;20398;-83
2022/03/08 12:09:22;;;;;;;4.40;2.30;;;;;;;;;;4993882;28;20403;-83
2022/03/08 12:12:02;;;;;;;3.40;2.70;;;;;;;;;;4995161;28;20403;-83
2022/03/08 12:14:30;;;;;;;3.80;2.40;;;;;;;;;;4999243;28;20418;-84
2022/03/08 12:17:14;;;;;;;3.40;2.30;;;;;;;;;;5011304;28;20414;-83
2022/03/08 12:19:44;;;;;;;3.33;2.80;;;;;;;;;;5014805;28;20418;-84
2022/03/08 12:22:12;;;;;;;6.13;2.17;;;;;;;;;;5014569;28;20414;-82
2022/03/08 12:24:43;;;;;;;3.80;2.03;;;;;;;;;;5014346;28;20504;-85
2022/03/08 12:27:10;;;;;;;4.70;2.20;;;;;;;;;;4997108;28;20414;-82
2022/03/08 12:29:50;;;;;;;2.70;1.70;;;;;;;;;;5014396;28;20768;-83
2022/03/08 12:32:24;;;;;;;2.23;1.83;;;;;;;;;;5014228;28;20768;-82
2022/03/08 12:35:01;;;;;;;2.80;2.03;;;;;;;;;;5014494;28;20422;-82
2022/03/08 12:37:33;;;;;;;2.17;1.97;;;;;;;;;;5015097;28;20460;-83
2022/03/08 12:39:59;;;;;;;3.10;1.73;;;;;;;;;;5015059;28;20425;-84
2022/03/08 12:42:32;;;;;;;2.93;1.50;;;;;;;;;;5014468;28;20453;-83
2022/03/08 12:44:59;;;;;;;3.07;1.80;;;;;;;;;;5014251;28;20430;-83
2022/03/08 12:47:27;;;;;;;2.57;1.80;;;;;;;;;;4996685;28;20406;-84
2022/03/08 12:49:53;;;;;;;2.50;2.03;;;;;;;;;;5014303;28;20580;-85
2022/03/08 12:52:20;;;;;;;3.80;1.87;;;;;;;;;;4996627;28;20512;-84
2022/03/08 12:54:46;;;;;;;3.80;1.50;;;;;;;;;;5014369;28;20406;-83
2022/03/08 12:57:14;;;;;;;1.90;1.30;;;;;;;;;;5014444;28;20890;-84
2022/03/08 12:59:50;;;;;;;2.10;1.50;;;;;;;;;;5014070;28;20418;-84
2022/03/08 13:02:22;;;;;;;2.37;1.07;;;;;;;;;;4995308;28;20765;-84
2022/03/08 13:04:49;;;;;;;1.90;1.57;;;;;;;;;;5014158;28;20425;-84
2022/03/08 13:07:16;;;;;;;2.40;1.60;;;;;;;;;;5014219;28;20414;-84
2022/03/08 13:09:53;;;;;;;2.73;1.00;;;;;;;;;;4996328;28;20426;-83
2022/03/08 13:12:20;;;;;;;1.57;1.03;;;;;;;;;;4996202;28;20425;-83
2022/03/08 13:15:05;;;;;;;1.37;0.80;;;;;;;;;;4996063;28;20418;-83
2022/03/08 13:17:31;;;;;;;1.97;1.20;;;;;;;;;;5013730;28;20841;-83
2022/03/08 13:19:57;;;;;;;2.20;0.80;;;;;;;;;;4996355;28;20418;-84
2022/03/08 13:22:23;;;;;;;2.13;0.70;;;;;;;;;;4996048;28;20457;-83
2022/03/08 13:25:08;;;;;;;2.70;1.03;;;;;;;;;;5013890;28;20177;-83
2022/03/08 13:27:53;;;;;;;1.20;0.60;;;;;;;;;;5013576;28;20413;-83
2022/03/08 13:30:20;;;;;;;1.47;0.57;;;;;;;;;;5013250;28;20768;-83
2022/03/08 13:32:46;;;;;;;1.20;0.50;;;;;;;;;;5013689;28;20416;-83
2022/03/08 13:35:12;;;;;;;1.23;0.33;;;;;;;;;;5013557;28;20447;-83
2022/03/08 13:37:45;;;;;;;2.07;0.73;;;;;;;;;;5013330;28;20923;-83
2022/03/08 13:40:23;;;;;;;1.60;0.70;;;;;;;;;;5013369;28;20447;-83
2022/03/08 13:42:50;;;;;;;1.63;0.90;;;;;;;;;;5013106;28;21023;-83
2022/03/08 13:45:16;;;;;;;1.67;0.77;;;;;;;;;;5012869;28;20411;-83
2022/03/08 13:47:41;;;;;;;1.70;0.87;;;;;;;;;;5013359;28;20787;-84
2022/03/08 13:50:08;;;;;;;2.93;0.73;;;;;;;;;;5013278;28;20460;-83
2022/03/08 13:52:34;;;;;;;1.43;1.10;;;;;;;;;;5013092;28;20505;-84
2022/03/08 13:55:00;;;;;;;3.03;0.97;;;;;;;;;;4995480;28;20418;-83
2022/03/08 13:57:26;;;;;;;1.27;0.73;;;;;;;;;;5013213;28;20763;-83
2022/03/08 13:59:53;;;;;;;1.83;1.03;;;;;;;;;;5012789;28;20751;-83
2022/03/08 14:02:21;;;;;;;1.30;0.83;;;;;;;;;;5012895;28;20431;-83
2022/03/08 14:04:47;;;;;;;1.73;0.57;;;;;;;;;;5012934;28;20417;-83
2022/03/08 14:07:19;;;;;;;1.33;0.30;;;;;;;;;;5013090;28;20421;-83
2022/03/08 14:09:58;;;;;;;0.97;0.43;;;;;;;;;;5013270;28;20418;-83
2022/03/08 14:12:24;;;;;;;1.70;1.07;;;;;;;;;;5013260;28;20497;-82
2022/03/08 14:15:02;;;;;;;0.90;0.60;;;;;;;;;;5016055;28;20516;-83
2022/03/08 14:17:31;;;;;;;2.13;0.63;;;;;;;;;;5016919;28;20419;-83
2022/03/08 14:19:57;;;;;;;1.00;0.70;;;;;;;;;;5016985;28;20472;-82
2022/03/08 14:22:23;;;;;;;1.60;1.20;;;;;;;;;;5016852;28;20907;-83
2022/03/08 14:25:03;;;;;;;2.30;0.70;;;;;;;;;;5017260;28;20442;-84
2022/03/08 14:27:31;;;;;;;1.23;0.90;;;;;;;;;;5006094;28;20424;-83
2022/03/08 14:30:01;;;;;;;3.20;0.57;;;;;;;;;;4997546;28;20761;-82
2022/03/08 14:32:31;;;;;;;2.20;0.60;;;;;;;;;;4997515;28;20823;-83
2022/03/08 14:35:08;;;;;;;1.60;1.07;;;;;;;;;;4997398;28;20431;-81
2022/03/08 14:37:34;;;;;;;3.93;0.83;;;;;;;;;;4997632;28;20794;-84
2022/03/08 14:40:00;;;;;;;3.07;0.87;;;;;;;;;;4997497;28;20415;-83
2022/03/08 14:42:35;;;;;;;2.60;1.40;;;;;;;;;;4999934;28;20910;-82
2022/03/08 14:45:02;;;;;;;2.00;0.80;;;;;;;;;;4997143;28;20471;-84